createdAt,value
2023-02-03T00:50:54.748Z,97292.44
2023-02-03T00:53:23.376Z,97432.56
2023-02-03T00:55:53.151Z,97286.53
2023-02-03T00:58:21.692Z,97315.63
2023-02-03T01:00:51.839Z,97326.94
2023-02-03T01:03:20.963Z,97407.91
2023-02-03T01:05:52.112Z,97385.56
2023-02-03T02:10:07.921Z,97386.22
2023-02-03T02:12:36.313Z,97374.66
2023-02-03T02:15:06.173Z,97391.22
2023-02-03T02:17:57.904Z,97379.31
2023-02-03T02:20:37.235Z,97386.50
2023-02-03T02:23:38.131Z,97384.47
2023-02-03T02:26:37.659Z,97388.19
2023-02-03T02:29:24.448Z,97401.78
2023-02-03T02:32:01.851Z,97395.41
2023-02-03T02:34:42.065Z,97392.53
2023-02-03T02:37:21.059Z,97389.84
2023-02-03T02:39:57.765Z,97379.81
2023-02-03T02:42:34.871Z,97377.28
2023-02-03T02:45:12.661Z,97372.41
2023-02-03T02:47:43.169Z,97372.03
2023-02-03T02:50:21.805Z,97376.56
2023-02-03T02:52:52.652Z,97370.03
2023-02-03T02:55:25.761Z,97368.88
2023-02-03T02:58:01.467Z,97371.50
2023-02-03T03:00:32.692Z,97349.47
2023-02-03T03:03:14.981Z,97358.75
2023-02-03T03:05:50.262Z,97366.31
2023-02-03T03:08:26.594Z,97370.16
2023-02-03T03:10:57.408Z,97382.34
2023-02-03T03:13:32.261Z,97378.84
2023-02-03T03:16:05.136Z,97362.75
2023-02-03T03:18:38.677Z,97361.78
2023-02-03T03:21:09.700Z,97352.84
2023-02-03T03:23:42.337Z,97346.28
2023-02-03T03:26:16.093Z,97362.88
2023-02-03T03:28:49.747Z,97346.47
2023-02-03T03:31:21.493Z,97357.69
2023-02-03T03:33:51.336Z,97352.31
2023-02-03T03:36:25.517Z,97367.22
2023-02-03T03:39:03.970Z,97352.47
2023-02-03T03:41:40.771Z,97364.53
2023-02-03T03:44:15.439Z,97354.63
2023-02-03T03:46:49.952Z,97350.09
2023-02-03T03:49:22.105Z,97353.59
2023-02-03T03:51:55.373Z,97352.97
2023-02-03T03:54:27.349Z,97347.78
2023-02-03T03:57:00.934Z,97362.69
2023-02-03T03:59:34.005Z,97349.16
2023-02-03T04:02:05.394Z,97374.44
2023-02-03T04:04:37.711Z,97376.09
2023-02-03T04:07:06.763Z,97375.25
2023-02-03T04:09:36.974Z,97359.88
2023-02-03T04:12:07.242Z,97381.47
2023-02-03T04:14:39.131Z,97366.00
2023-02-03T04:17:07.999Z,97376.41
2023-02-03T04:19:37.672Z,97346.22
2023-02-03T04:22:07.814Z,97336.78
2023-02-03T04:24:36.704Z,97353.53
2023-02-03T04:27:05.626Z,97368.81
2023-02-03T04:29:35.264Z,97376.84
2023-02-03T04:32:04.024Z,97389.94
2023-02-03T04:34:33.312Z,97395.31
2023-02-03T04:37:05.629Z,97395.66
2023-02-03T04:39:35.604Z,97394.44
2023-02-03T04:42:04.037Z,97394.28
2023-02-03T04:44:32.555Z,97382.72
2023-02-03T04:47:01.745Z,97375.38
2023-02-03T04:49:30.062Z,97386.56
2023-02-03T04:51:58.916Z,97374.28
2023-02-03T04:54:28.646Z,97380.69
2023-02-03T04:56:57.867Z,97348.78
2023-02-03T04:59:26.220Z,97379.66
2023-02-03T05:01:56.222Z,97373.47
2023-02-03T05:04:25.130Z,97375.94
2023-02-03T05:06:53.883Z,97370.59
2023-02-03T05:09:22.177Z,97356.16
2023-02-03T05:11:53.961Z,97363.38
2023-02-03T05:14:22.841Z,97361.19
2023-02-03T05:16:51.630Z,97354.28
2023-02-03T05:19:19.997Z,97350.78
2023-02-03T05:21:50.271Z,97357.81
2023-02-03T05:24:18.603Z,97357.81
2023-02-03T05:26:47.396Z,97332.47
2023-02-03T05:29:17.114Z,97326.09
2023-02-03T05:31:47.209Z,97328.13
2023-02-03T05:34:15.547Z,97339.50
2023-02-03T05:36:44.730Z,97344.03
2023-02-03T05:39:13.064Z,97344.03
2023-02-03T05:41:52.654Z,97338.50
2023-02-03T05:44:24.406Z,97345.91
2023-02-03T05:46:54.624Z,97344.69
2023-02-03T05:49:24.275Z,97344.69
2023-02-03T05:51:54.076Z,97330.25
2023-02-03T05:54:22.749Z,97341.00
2023-02-03T05:56:51.550Z,97333.19
2023-02-03T05:59:19.876Z,97326.91
2023-02-03T06:01:50.699Z,97339.69
2023-02-03T06:04:19.146Z,97350.44
2023-02-03T06:06:48.600Z,97356.00
2023-02-03T06:09:17.046Z,97345.06
2023-02-03T06:11:46.197Z,97355.81
2023-02-03T06:14:15.193Z,97351.91
2023-02-03T06:16:43.612Z,97363.66
2023-02-03T06:19:15.994Z,97350.44
2023-02-03T06:21:44.594Z,97357.78
2023-02-03T06:24:13.560Z,97350.69
2023-02-03T06:26:42.057Z,97363.78
2023-02-03T06:29:15.596Z,97348.41
2023-02-03T06:31:44.856Z,97354.59
2023-02-03T06:34:16.425Z,97353.75
2023-02-03T06:36:44.798Z,97361.81
2023-02-03T06:39:13.150Z,97360.50
2023-02-03T06:41:41.986Z,97355.88
2023-02-03T06:44:10.336Z,97372.44
2023-02-03T06:46:39.800Z,97350.31
2023-02-03T06:49:08.574Z,97356.72
2023-02-03T06:51:38.487Z,97351.69
2023-02-03T07:12:14.855Z,97307.47
2023-02-03T07:14:43.763Z,97299.13
2023-02-03T07:17:12.639Z,97303.16
2023-02-03T07:19:41.081Z,97319.03
2023-02-03T07:22:11.859Z,97319.47
2023-02-03T07:24:44.363Z,97327.34
2023-02-03T07:27:12.692Z,97318.66
2023-02-03T07:29:41.117Z,97306.06
2023-02-03T07:32:09.764Z,97300.50
2023-02-03T07:34:38.670Z,97286.75
2023-02-03T07:37:07.057Z,97269.81
2023-02-03T07:39:35.419Z,97262.22
2023-02-03T07:42:06.703Z,97270.47
2023-02-03T07:44:41.571Z,97281.69
2023-02-03T07:47:12.545Z,97293.88
2023-02-03T07:52:48.545Z,97306.94
2023-02-03T07:55:16.913Z,97293.50
2023-02-03T07:57:50.046Z,97293.34
2023-02-03T08:00:19.748Z,97294.81
2023-02-03T08:02:51.806Z,97314.06
2023-02-03T08:12:15.294Z,97296.97
2023-02-03T08:15:17.687Z,97302.16
2023-02-03T08:17:51.287Z,97315.09
2023-02-03T08:20:21.532Z,97321.47
2023-02-03T08:22:57.908Z,97330.47
2023-02-03T08:25:26.837Z,97335.47
2023-02-03T08:27:56.631Z,97334.81
2023-02-03T08:37:13.839Z,97338.44
2023-02-03T08:40:09.833Z,97321.50
2023-02-03T08:42:51.730Z,97322.50
2023-02-03T08:45:24.794Z,97308.97
2023-02-03T08:47:55.360Z,97293.81
2023-02-03T08:50:26.600Z,97283.56
2023-02-03T08:52:56.247Z,97289.38
2023-02-03T08:55:25.141Z,97234.44
2023-02-03T08:57:53.987Z,97273.25
2023-02-03T09:00:23.118Z,97290.28
2023-02-03T09:02:51.639Z,97314.66
2023-02-03T09:05:21.904Z,97295.56
2023-02-03T09:07:50.233Z,97279.16
2023-02-03T09:10:19.472Z,97258.81
2023-02-03T09:12:48.253Z,97289.56
2023-02-03T09:15:16.634Z,97296.25
2023-02-03T09:17:45.836Z,97272.72
2023-02-03T09:20:15.102Z,97300.69
2023-02-03T09:22:45.692Z,97300.75
2023-02-03T09:25:16.305Z,97292.88
2023-02-03T09:27:45.729Z,97294.19
2023-02-03T09:30:15.033Z,97298.16
2023-02-03T09:32:45.201Z,97297.13
2023-02-03T09:35:13.950Z,97289.66
2023-02-03T09:37:42.767Z,97304.19
2023-02-03T09:40:21.836Z,97302.16
2023-02-03T09:43:01.450Z,97298.53
2023-02-03T09:45:31.022Z,97293.44
2023-02-03T09:48:04.565Z,97266.75
2023-02-03T09:50:36.868Z,97282.03
2023-02-03T09:53:17.717Z,97302.69
2023-02-03T09:55:49.590Z,97299.47
2023-02-03T09:58:21.131Z,97302.78
2023-02-03T10:00:54.941Z,97296.59
2023-02-03T10:03:32.094Z,97297.50
2023-02-03T10:06:11.089Z,97271.19
2023-02-03T10:08:53.299Z,97312.41
2023-02-03T10:11:39.241Z,97291.78
2023-02-03T10:14:18.182Z,97305.38
2023-02-03T10:17:05.740Z,97306.03
2023-02-03T10:19:43.105Z,97323.00
2023-02-03T10:22:16.934Z,97293.78
2023-02-03T10:24:49.576Z,97306.13
2023-02-03T10:27:22.491Z,97244.44
2023-02-03T10:29:58.701Z,97294.25
2023-02-03T10:32:28.829Z,97218.34
2023-02-03T10:34:57.956Z,97277.41
2023-02-03T10:37:31.842Z,97307.03
2023-02-03T10:40:02.325Z,97303.13
2023-02-03T10:42:49.926Z,97297.13
2023-02-03T10:45:18.593Z,97279.31
2023-02-03T10:47:51.960Z,97243.41
2023-02-03T10:50:23.242Z,97329.66
2023-02-03T10:52:52.133Z,97312.22
2023-02-03T10:55:32.581Z,97293.88
2023-02-03T10:58:16.249Z,97297.13
2023-02-03T11:00:44.642Z,97285.47
2023-02-03T11:03:25.182Z,97285.97
2023-02-03T11:06:09.230Z,97310.66
2023-02-03T11:08:42.839Z,97304.53
2023-02-03T11:11:23.253Z,97292.59
2023-02-03T11:14:17.423Z,97271.09
2023-02-03T11:16:48.819Z,97275.63
2023-02-03T11:19:19.441Z,97248.09
2023-02-03T11:21:51.923Z,97262.09
2023-02-03T11:24:22.199Z,97230.69
2023-02-03T11:26:56.169Z,97240.78
2023-02-03T11:29:28.455Z,97253.38
2023-02-03T11:32:01.305Z,97229.91
2023-02-03T11:34:32.427Z,97227.22
2023-02-03T11:37:27.540Z,97221.72
2023-02-03T11:39:57.756Z,97207.88
2023-02-03T11:42:26.216Z,97225.88
2023-02-03T11:45:15.663Z,97195.34
2023-02-03T11:47:49.091Z,97165.34
2023-02-03T11:50:30.754Z,97160.19
2023-02-03T11:53:21.801Z,97168.16
2023-02-03T11:56:11.571Z,97180.66
2023-02-03T11:59:01.855Z,97129.56
2023-02-03T12:01:56.764Z,97147.38
2023-02-03T12:04:40.360Z,97110.81
2023-02-03T12:07:34.755Z,97124.03
2023-02-03T12:10:13.767Z,97072.06
2023-02-03T12:12:52.261Z,97110.13
2023-02-03T12:15:47.311Z,97144.16
2023-02-03T12:18:29.655Z,97115.16
2023-02-03T12:21:13.485Z,97129.06
2023-02-03T12:23:53.030Z,97117.50
2023-02-03T12:26:24.971Z,97109.47
2023-02-03T12:29:03.117Z,97078.31
2023-02-03T12:31:39.238Z,97127.34
2023-02-03T12:34:19.919Z,97106.63
2023-02-03T12:36:53.519Z,97116.47
2023-02-03T12:39:28.849Z,97123.09
2023-02-03T12:42:02.605Z,97099.88
2023-02-03T12:44:40.796Z,97107.97
2023-02-03T12:47:19.840Z,97118.72
2023-02-03T12:49:54.878Z,97108.63
2023-02-03T12:52:30.045Z,97105.69
2023-02-03T12:55:20.201Z,97087.47
2023-02-03T12:57:55.615Z,97078.53
2023-02-03T13:00:36.182Z,97089.53
2023-02-03T13:03:14.562Z,97083.69
2023-02-03T13:05:53.269Z,97096.09
2023-02-03T13:08:29.607Z,97080.38
2023-02-03T13:11:09.429Z,97072.19
2023-02-03T13:13:44.703Z,97081.16
2023-02-03T13:16:17.511Z,97084.69
2023-02-03T13:18:51.340Z,97085.09
2023-02-03T13:21:24.317Z,97069.53
2023-02-03T13:23:53.700Z,97037.41
2023-02-03T13:26:57.170Z,97047.97
2023-02-03T13:29:48.128Z,97061.91
2023-02-03T13:32:36.934Z,97046.16
2023-02-03T13:35:32.289Z,97012.34
2023-02-03T13:38:23.523Z,97062.34
2023-02-03T13:41:01.956Z,97037.94
2023-02-03T13:43:38.874Z,97089.25
2023-02-03T13:46:14.479Z,97002.44
2023-02-03T13:48:47.435Z,97016.44
2023-02-03T13:51:20.070Z,97023.84
2023-02-03T13:53:52.311Z,97016.81
2023-02-03T13:56:24.756Z,97004.44
2023-02-03T13:59:05.850Z,96998.84
2023-02-03T14:01:38.695Z,97011.47
2023-02-03T14:04:10.030Z,97027.19
2023-02-03T14:07:01.346Z,96982.88
2023-02-03T14:09:43.123Z,97016.06
2023-02-03T14:12:37.005Z,96983.34
2023-02-03T14:15:31.646Z,96973.03
2023-02-03T14:18:35.815Z,96978.63
2023-02-03T14:21:15.767Z,96977.78
2023-02-03T14:23:49.735Z,96961.00
2023-02-03T14:26:32.222Z,97006.75
2023-02-03T14:29:02.073Z,96973.38
2023-02-03T14:31:31.206Z,96951.69
2023-02-03T14:34:14.060Z,96946.94
2023-02-03T14:36:47.989Z,96944.84
2023-02-03T14:39:55.220Z,96931.84
2023-02-03T14:42:44.729Z,96949.19
2023-02-03T14:45:24.837Z,96956.66
2023-02-03T14:48:07.071Z,96961.81
2023-02-03T14:50:47.846Z,96966.16
2023-02-03T14:53:31.236Z,96961.41
2023-02-03T14:56:12.138Z,96950.44
2023-02-03T14:58:48.278Z,96940.69
2023-02-03T15:01:29.856Z,96927.00
2023-02-03T15:04:24.925Z,96956.88
2023-02-03T15:06:54.921Z,96946.09
2023-02-03T15:09:30.942Z,96960.16
2023-02-03T15:11:59.869Z,96949.78
2023-02-03T15:14:32.181Z,96918.38
2023-02-03T15:17:02.648Z,96949.81
2023-02-03T15:19:35.290Z,96951.69
2023-02-03T15:22:20.266Z,96924.97
2023-02-03T15:24:50.944Z,96886.91
2023-02-03T15:27:24.963Z,96878.81
2023-02-03T15:29:57.227Z,96903.25
2023-02-03T15:32:30.159Z,96882.34
2023-02-03T15:35:02.598Z,96878.22
2023-02-03T15:37:35.556Z,96897.22
2023-02-03T15:40:09.146Z,96901.81
2023-02-03T15:42:44.507Z,96928.91
2023-02-03T15:45:30.023Z,96943.81
2023-02-03T15:48:04.626Z,96975.69
2023-02-03T15:50:43.083Z,96958.94
2023-02-03T15:53:18.671Z,96952.25
2023-02-03T15:55:51.622Z,97004.84
2023-02-03T15:58:24.435Z,96980.00
2023-02-03T16:00:59.489Z,96899.91
2023-02-03T16:03:34.581Z,96940.94
2023-02-03T16:06:09.600Z,96980.38
2023-02-03T16:08:43.859Z,96964.84
2023-02-03T16:11:24.203Z,96947.03
2023-02-03T16:13:55.827Z,96940.41
2023-02-03T16:16:29.118Z,96951.97
2023-02-03T16:43:45.830Z,96963.84
2023-02-03T16:46:31.872Z,96966.53
2023-02-03T16:49:18.443Z,96967.41
2023-02-03T16:51:48.283Z,96965.53
2023-02-03T16:54:21.522Z,96969.88
2023-02-03T17:00:18.929Z,96978.56
2023-02-03T17:02:47.976Z,96968.22
2023-02-03T17:05:21.550Z,96967.41
2023-02-03T17:07:52.758Z,96978.53
2023-02-03T17:10:21.977Z,96984.53
2023-02-03T17:12:52.633Z,96975.47
2023-02-03T17:15:21.886Z,96983.09
2023-02-03T17:17:50.231Z,96952.03
2023-02-03T17:20:19.792Z,96962.81
2023-02-03T17:22:52.682Z,96931.50
2023-02-03T18:21:33.593Z,96941.34
2023-02-03T18:28:45.870Z,96946.72
2023-02-03T18:36:09.155Z,96945.31
2023-02-03T18:38:43.601Z,96877.59
2023-02-03T18:44:06.164Z,96906.78
2023-02-03T18:46:36.663Z,96951.97
2023-02-03T18:49:05.302Z,96949.63
2023-02-03T19:13:36.948Z,96962.53
2023-02-03T19:16:30.860Z,96895.53
2023-02-03T19:18:59.584Z,96924.50
2023-02-03T19:21:29.216Z,97005.56
2023-02-03T19:23:58.802Z,96967.75
2023-02-03T19:26:29.965Z,96989.03
2023-02-03T19:29:00.189Z,96968.56
2023-02-03T19:31:28.765Z,96989.44
2023-02-03T19:33:59.720Z,96990.06
2023-02-03T19:36:28.840Z,96985.09
2023-02-03T19:39:01.226Z,96990.72
2023-02-03T19:41:30.921Z,96992.97
2023-02-03T19:44:00.773Z,96982.22
2023-02-03T19:46:32.600Z,96990.06
2023-02-03T19:49:01.039Z,96975.34
2023-02-03T19:51:29.893Z,97005.81
2023-02-03T19:53:58.986Z,96986.19
2023-02-03T19:56:28.497Z,96968.56
2023-02-03T20:00:52.635Z,96973.94
2023-02-03T20:03:49.637Z,97025.78
2023-02-03T20:06:18.539Z,96989.66
2023-02-03T20:08:54.653Z,96974.97
2023-02-03T20:11:23.813Z,96986.97
2023-02-03T20:13:52.384Z,97006.19
2023-02-03T20:19:37.371Z,97017.78
2023-02-03T20:22:06.050Z,97031.44
2023-02-03T20:24:34.771Z,97014.47
2023-02-03T20:27:03.280Z,97031.44
2023-02-03T20:29:38.933Z,97025.22
2023-02-03T20:32:11.763Z,97025.84
2023-02-03T20:34:42.301Z,97083.13
2023-02-03T20:37:13.325Z,97015.19
2023-02-03T20:39:46.476Z,97063.06
2023-02-03T20:42:17.362Z,97027.09
2023-02-03T20:47:59.797Z,97035.56
2023-02-03T20:50:41.589Z,97033.69
2023-02-03T20:53:15.486Z,97025.84
2023-02-03T20:55:46.575Z,97043.41
2023-02-03T20:58:19.914Z,97027.84
2023-02-03T21:00:57.017Z,97051.28
2023-02-03T21:06:48.088Z,97068.03
2023-02-03T21:09:19.302Z,97078.78
2023-02-03T21:11:48.006Z,97041.81
2023-02-03T21:14:20.785Z,97049.75
2023-02-03T21:16:49.927Z,97073.88
2023-02-03T21:19:28.713Z,97061.44
2023-02-03T21:22:09.715Z,97036.44
2023-02-03T21:24:38.044Z,97058.75
2023-02-03T21:27:23.548Z,97058.94
2023-02-03T21:29:55.712Z,97054.38
2023-02-03T21:32:27.059Z,97108.34
2023-02-03T21:34:55.631Z,97069.53
2023-02-03T21:37:41.373Z,97053.38
2023-02-03T21:40:28.652Z,97057.53
2023-02-03T21:42:58.713Z,97063.53
2023-02-03T21:45:42.010Z,97074.28
2023-02-03T21:48:28.737Z,97082.81
2023-02-03T21:51:01.565Z,97074.94
2023-02-03T21:53:35.604Z,97069.16
2023-02-03T21:56:19.392Z,97080.06
2023-02-03T21:58:50.719Z,97059.38
2023-02-03T22:01:22.734Z,97071.22
2023-02-03T22:03:55.662Z,97093.78
2023-02-03T22:06:27.139Z,97106.59
2023-02-03T22:08:59.425Z,97095.84
2023-02-03T22:14:55.965Z,97118.41
2023-02-03T22:17:24.752Z,97116.94
2023-02-03T22:19:53.108Z,97106.56
2023-02-03T22:22:21.818Z,97119.63
2023-02-03T22:24:54.540Z,97113.00
2023-02-03T22:27:25.109Z,97099.16
2023-02-03T22:29:56.779Z,97113.84
2023-02-03T22:32:25.209Z,97111.34
2023-02-03T22:35:01.296Z,97122.06
2023-02-03T22:37:32.305Z,97147.78
2023-02-03T22:40:02.533Z,97156.09
2023-02-03T22:42:30.915Z,97159.81
2023-02-03T22:44:59.298Z,97159.41
2023-02-03T22:47:27.695Z,97161.91
2023-02-03T22:49:56.876Z,97159.69
2023-02-03T22:52:32.754Z,97153.84
2023-02-03T22:55:03.983Z,97167.94
2023-02-03T22:57:32.437Z,97161.53
2023-02-03T23:00:01.745Z,97173.75
2023-02-03T23:02:30.579Z,97173.56
2023-02-03T23:04:58.980Z,97188.50
2023-02-03T23:07:31.822Z,97201.53
2023-02-03T23:10:00.254Z,97192.63
2023-02-03T23:12:30.340Z,97191.81
2023-02-03T23:14:58.784Z,97193.94
2023-02-03T23:17:27.551Z,97197.25
2023-02-03T23:19:56.906Z,97195.59
2023-02-03T23:22:27.476Z,97202.00
2023-02-03T23:25:28.185Z,97202.81
2023-02-03T23:31:24.117Z,97197.66
2023-02-03T23:34:07.558Z,97212.94
2023-02-03T23:36:35.954Z,97217.47
2023-02-03T23:39:05.207Z,97220.38
2023-02-03T23:41:33.527Z,97218.06
2023-02-03T23:44:04.202Z,97227.34
2023-02-03T23:46:32.587Z,97233.75
2023-02-03T23:49:01.325Z,97225.25
2023-02-03T23:51:29.684Z,97224.03
2023-02-03T23:53:58.962Z,97218.00
2023-02-03T23:56:27.364Z,97223.13
2023-02-03T23:58:56.017Z,97218.44
